createdAt,value
2022-09-26T00:00:30.373Z,1008.45
2022-09-26T00:01:30.555Z,1008.43
2022-09-26T00:02:30.402Z,1008.43
2022-09-26T00:03:30.381Z,1008.38
2022-09-26T00:04:32.782Z,1008.37
2022-09-26T00:05:30.295Z,1008.36
2022-09-26T00:06:30.307Z,1008.33
2022-09-26T00:07:30.295Z,1008.30
2022-09-26T00:08:30.271Z,1008.26
2022-09-26T00:09:30.271Z,1008.25
2022-09-26T00:10:30.246Z,1008.24
2022-09-26T00:11:30.223Z,1008.25
2022-09-26T00:12:30.194Z,1008.22
2022-09-26T00:13:30.211Z,1008.22
2022-09-26T00:14:30.205Z,1008.17
2022-09-26T00:15:30.167Z,1008.16
2022-09-26T00:16:30.232Z,1008.13
2022-09-26T00:17:30.143Z,1008.12
2022-09-26T00:18:30.131Z,1008.10
2022-09-26T00:19:30.125Z,1008.06
2022-09-26T00:20:30.184Z,1008.04
2022-09-26T00:21:30.104Z,1008.03
2022-09-26T00:22:30.127Z,1008.02
2022-09-26T00:23:30.098Z,1007.99
2022-09-26T00:24:30.087Z,1007.99
2022-09-26T00:25:30.055Z,1007.97
2022-09-26T00:26:30.049Z,1007.93
2022-09-26T00:27:30.034Z,1007.86
2022-09-26T00:28:30.063Z,1007.82
2022-09-26T00:29:30.037Z,1007.80
2022-09-26T00:30:30.038Z,1007.82
2022-09-26T00:31:29.970Z,1007.79
2022-09-26T00:32:29.982Z,1007.80
2022-09-26T00:33:29.940Z,1007.84
2022-09-26T00:34:29.950Z,1007.79
2022-09-26T00:35:29.986Z,1007.81
2022-09-26T00:36:37.916Z,1007.81
2022-09-26T00:37:30.883Z,1007.81
2022-09-26T00:38:29.873Z,1007.78
2022-09-26T00:39:29.905Z,1007.77
2022-09-26T00:40:29.901Z,1007.75
2022-09-26T00:41:29.863Z,1007.76
2022-09-26T00:42:29.824Z,1007.71
2022-09-26T00:43:29.828Z,1007.76
2022-09-26T00:44:29.805Z,1007.71
2022-09-26T00:45:29.816Z,1007.71
2022-09-26T00:46:29.831Z,1007.68
2022-09-26T01:03:55.372Z,1007.42
2022-09-26T01:04:55.314Z,1007.35
2022-09-26T01:05:55.322Z,1007.34
2022-09-26T01:06:55.301Z,1007.33
2022-09-26T01:07:55.313Z,1007.35
2022-09-26T01:08:55.273Z,1007.34
2022-09-26T01:09:55.257Z,1007.31
2022-09-26T01:10:55.252Z,1007.26
2022-09-26T01:11:55.225Z,1007.30
2022-09-26T01:12:55.909Z,1007.25
2022-09-26T01:13:55.241Z,1007.24
2022-09-26T01:14:55.178Z,1007.24
2022-09-26T01:15:55.175Z,1007.21
2022-09-26T01:16:55.245Z,1007.21
2022-09-26T01:17:55.153Z,1007.17
2022-09-26T01:18:55.135Z,1007.14
2022-09-26T01:19:55.145Z,1007.15
2022-09-26T01:20:55.125Z,1007.14
2022-09-26T01:21:55.096Z,1007.11
2022-09-26T01:22:55.077Z,1007.07
2022-09-26T01:23:55.076Z,1007.06
2022-09-26T01:24:55.055Z,1007.03
2022-09-26T01:25:55.040Z,1007.01
2022-09-26T01:26:55.115Z,1006.98
2022-09-26T01:27:57.704Z,1006.97
2022-09-26T01:28:55.008Z,1006.96
2022-09-26T01:29:54.992Z,1006.94
2022-09-26T01:30:55.011Z,1006.92
2022-09-26T01:31:55.019Z,1006.89
2022-09-26T01:32:54.950Z,1006.90
2022-09-26T01:33:54.931Z,1006.82
2022-09-26T01:34:54.921Z,1006.79
2022-09-26T01:35:54.918Z,1006.77
2022-09-26T01:36:54.917Z,1006.80
2022-09-26T01:37:54.911Z,1006.79
2022-09-26T01:38:54.871Z,1006.76
2022-09-26T01:39:54.863Z,1006.80
2022-09-26T01:40:54.891Z,1006.81
2022-09-26T01:41:54.852Z,1006.83
2022-09-26T01:42:54.824Z,1006.81
2022-09-26T01:43:54.805Z,1006.84
2022-09-26T01:44:54.786Z,1006.82
2022-09-26T01:45:54.820Z,1006.82
2022-09-26T01:46:54.773Z,1006.84
2022-09-26T01:47:54.756Z,1006.85
2022-09-26T01:48:54.743Z,1006.84
2022-09-26T01:49:54.718Z,1006.83
2022-09-26T01:50:54.715Z,1006.85
2022-09-26T01:51:54.703Z,1006.84
2022-09-26T01:52:54.673Z,1006.80
2022-09-26T01:53:54.692Z,1006.85
2022-09-26T01:54:54.667Z,1006.85
2022-09-26T01:55:54.646Z,1006.76
2022-09-26T01:56:54.657Z,1006.74
2022-09-26T01:57:54.612Z,1006.71
2022-09-26T01:58:54.585Z,1006.74
2022-09-26T01:59:54.594Z,1006.65
2022-09-26T02:00:54.612Z,1006.71
2022-09-26T02:01:54.593Z,1006.66
2022-09-26T02:02:56.233Z,1006.62
2022-09-26T02:03:54.530Z,1006.64
2022-09-26T02:04:54.506Z,1006.62
2022-09-26T02:05:54.499Z,1006.59
2022-09-26T02:06:54.480Z,1006.51
2022-09-26T02:07:59.651Z,1006.51
2022-09-26T02:08:54.473Z,1006.52
2022-09-26T02:09:54.440Z,1006.46
2022-09-26T02:10:54.424Z,1006.50
2022-09-26T02:11:54.407Z,1006.40
2022-09-26T02:12:54.420Z,1006.44
2022-09-26T02:13:54.476Z,1006.35
2022-09-26T02:14:54.370Z,1006.41
2022-09-26T02:15:54.365Z,1006.36
2022-09-26T02:16:54.430Z,1006.37
2022-09-26T02:17:54.346Z,1006.29
2022-09-26T02:18:54.330Z,1006.28
2022-09-26T02:19:54.307Z,1006.26
2022-09-26T02:20:54.292Z,1006.27
2022-09-26T02:21:54.311Z,1006.26
2022-09-26T02:22:54.343Z,1006.26
2022-09-26T02:23:54.251Z,1006.21
2022-09-26T02:24:54.267Z,1006.17
2022-09-26T02:25:54.231Z,1006.19
2022-09-26T02:26:54.220Z,1006.16
2022-09-26T02:27:54.193Z,1006.16
2022-09-26T02:28:54.170Z,1006.09
2022-09-26T02:29:54.176Z,1006.08
2022-09-26T02:30:54.159Z,1006.02
2022-09-26T02:31:54.213Z,1005.99
2022-09-26T02:32:54.142Z,1005.98
2022-09-26T02:33:54.117Z,1005.95
2022-09-26T02:34:54.098Z,1005.95
2022-09-26T02:35:54.108Z,1005.94
2022-09-26T02:36:54.075Z,1005.95
2022-09-26T02:37:54.053Z,1005.91
2022-09-26T02:38:54.036Z,1005.85
2022-09-26T02:39:54.031Z,1005.88
2022-09-26T02:40:54.091Z,1005.78
2022-09-26T02:41:54.022Z,1005.78
2022-09-26T02:42:54.674Z,1005.76
2022-09-26T02:43:53.984Z,1005.76
2022-09-26T02:44:53.956Z,1005.70
2022-09-26T02:45:54.014Z,1005.67
2022-09-26T02:46:53.952Z,1005.66
2022-09-26T02:47:53.927Z,1005.65
2022-09-26T02:48:53.907Z,1005.65
2022-09-26T02:49:53.903Z,1005.66
2022-09-26T02:50:53.887Z,1005.60
2022-09-26T02:51:53.872Z,1005.60
2022-09-26T02:52:53.868Z,1005.64
2022-09-26T02:53:53.851Z,1005.57
2022-09-26T02:54:53.828Z,1005.58
2022-09-26T02:55:53.815Z,1005.56
2022-09-26T02:56:53.793Z,1005.50
2022-09-26T02:57:53.789Z,1005.49
2022-09-26T02:58:53.782Z,1005.44
2022-09-26T02:59:53.773Z,1005.42
2022-09-26T03:00:53.792Z,1005.38
2022-09-26T03:01:53.737Z,1005.36
2022-09-26T03:02:53.740Z,1005.36
2022-09-26T03:03:53.708Z,1005.33
2022-09-26T03:04:53.709Z,1005.32
2022-09-26T03:05:53.673Z,1005.33
2022-09-26T03:06:53.662Z,1005.34
2022-09-26T03:07:53.721Z,1005.32
2022-09-26T03:08:53.665Z,1005.28
2022-09-26T03:09:53.619Z,1005.29
2022-09-26T03:10:53.620Z,1005.27
2022-09-26T03:11:53.594Z,1005.26
2022-09-26T03:12:53.573Z,1005.24
2022-09-26T03:13:53.584Z,1005.23
2022-09-26T03:14:58.419Z,1005.22
2022-09-26T03:15:54.544Z,1005.18
2022-09-26T03:16:53.566Z,1005.17
2022-09-26T03:17:53.523Z,1005.13
2022-09-26T03:18:53.494Z,1005.15
2022-09-26T03:19:53.499Z,1005.11
2022-09-26T03:20:53.470Z,1005.05
2022-09-26T03:21:53.487Z,1005.07
2022-09-26T03:22:53.484Z,1005.11
2022-09-26T03:23:53.432Z,1005.10
2022-09-26T03:24:53.413Z,1005.03
2022-09-26T03:25:53.416Z,1005.02
2022-09-26T03:26:53.397Z,1005.01
2022-09-26T03:27:54.593Z,1004.98
2022-09-26T03:28:53.408Z,1004.98
2022-09-26T03:29:53.414Z,1004.94
2022-09-26T03:30:53.368Z,1004.90
2022-09-26T03:31:53.517Z,1004.88
2022-09-26T03:32:53.364Z,1004.90
2022-09-26T03:33:53.321Z,1004.87
2022-09-26T03:34:53.302Z,1004.83
2022-09-26T03:35:53.299Z,1004.89
2022-09-26T03:36:53.281Z,1004.83
2022-09-26T03:37:53.270Z,1004.78
2022-09-26T03:38:53.281Z,1004.80
2022-09-26T03:39:53.266Z,1004.79
2022-09-26T03:40:53.300Z,1004.75
2022-09-26T03:41:53.210Z,1004.75
2022-09-26T03:42:53.223Z,1004.71
2022-09-26T03:43:53.193Z,1004.72
2022-09-26T03:44:53.203Z,1004.71
2022-09-26T03:45:53.200Z,1004.68
2022-09-26T03:46:53.141Z,1004.69
2022-09-26T03:47:53.148Z,1004.69
2022-09-26T03:48:53.120Z,1004.67
2022-09-26T03:49:53.137Z,1004.66
2022-09-26T03:50:53.092Z,1004.65
2022-09-26T03:51:53.106Z,1004.63
2022-09-26T03:52:53.053Z,1004.69
2022-09-26T03:53:53.069Z,1004.64
2022-09-26T03:54:53.033Z,1004.64
2022-09-26T03:55:53.058Z,1004.64
2022-09-26T03:56:53.039Z,1004.60
2022-09-26T03:57:53.000Z,1004.60
2022-09-26T03:58:52.978Z,1004.57
2022-09-26T03:59:52.972Z,1004.52
2022-09-26T04:00:53.015Z,1004.56
2022-09-26T04:01:53.027Z,1004.49
2022-09-26T04:02:52.962Z,1004.49
2022-09-26T04:03:53.005Z,1004.50
2022-09-26T04:04:52.912Z,1004.46
2022-09-26T04:05:52.914Z,1004.45
2022-09-26T04:06:52.865Z,1004.45
2022-09-26T04:07:52.890Z,1004.43
2022-09-26T04:08:52.851Z,1004.41
2022-09-26T04:09:52.850Z,1004.39
2022-09-26T04:10:52.810Z,1004.36
2022-09-26T04:11:52.818Z,1004.38
2022-09-26T04:12:52.798Z,1004.38
2022-09-26T04:13:53.814Z,1004.34
2022-09-26T04:14:52.800Z,1004.34
2022-09-26T04:15:52.761Z,1004.28
2022-09-26T04:16:52.804Z,1004.25
2022-09-26T04:17:52.725Z,1004.21
2022-09-26T04:18:52.716Z,1004.22
2022-09-26T04:19:52.670Z,1004.17
2022-09-26T04:20:52.777Z,1004.19
2022-09-26T04:21:52.677Z,1004.14
2022-09-26T04:22:52.716Z,1004.14
2022-09-26T04:23:52.633Z,1004.12
2022-09-26T04:24:52.626Z,1004.11
2022-09-26T04:25:52.687Z,1004.12
2022-09-26T04:26:52.598Z,1004.11
2022-09-26T04:27:52.625Z,1004.11
2022-09-26T04:28:52.550Z,1004.10
2022-09-26T04:29:52.686Z,1004.09
2022-09-26T04:30:52.559Z,1004.08
2022-09-26T04:31:52.650Z,1004.07
2022-09-26T04:32:52.503Z,1004.06
2022-09-26T04:33:52.545Z,1004.06
2022-09-26T04:34:52.484Z,1004.02
2022-09-26T04:35:52.560Z,1004.05
2022-09-26T04:36:52.563Z,1004.02
2022-09-26T04:37:52.459Z,1004.00
2022-09-26T04:38:52.438Z,1004.00
2022-09-26T04:39:52.451Z,1003.98
2022-09-26T04:40:52.543Z,1003.97
2022-09-26T04:41:52.415Z,1003.94
2022-09-26T04:42:52.386Z,1003.94
2022-09-26T04:43:52.376Z,1003.88
2022-09-26T04:44:52.344Z,1003.90
2022-09-26T04:45:52.479Z,1003.87
2022-09-26T04:46:52.318Z,1003.84
2022-09-26T04:47:52.331Z,1003.84
2022-09-26T04:48:52.277Z,1003.78
2022-09-26T04:49:52.292Z,1003.74
2022-09-26T04:50:52.296Z,1003.70
2022-09-26T04:51:52.263Z,1003.70
2022-09-26T04:52:52.215Z,1003.69
2022-09-26T04:53:52.266Z,1003.67
2022-09-26T04:54:52.210Z,1003.67
2022-09-26T04:55:52.221Z,1003.58
2022-09-26T04:56:52.189Z,1003.62
2022-09-26T04:57:52.239Z,1003.61
2022-09-26T04:58:52.345Z,1003.64
2022-09-26T04:59:52.291Z,1003.59
2022-09-26T05:00:52.213Z,1003.56
2022-09-26T05:01:52.195Z,1003.54
2022-09-26T05:02:52.099Z,1003.50
2022-09-26T05:03:52.081Z,1003.54
2022-09-26T05:04:52.061Z,1003.47
2022-09-26T05:05:52.088Z,1003.47
2022-09-26T05:06:52.030Z,1003.41
2022-09-26T05:07:52.036Z,1003.44
2022-09-26T05:08:52.010Z,1003.41
2022-09-26T05:09:51.999Z,1003.36
2022-09-26T05:10:51.981Z,1003.34
2022-09-26T05:11:51.977Z,1003.30
2022-09-26T05:12:51.981Z,1003.27
2022-09-26T05:13:53.651Z,1003.30
2022-09-26T05:14:51.953Z,1003.27
2022-09-26T05:15:51.948Z,1003.27
2022-09-26T05:16:51.973Z,1003.25
2022-09-26T05:17:51.909Z,1003.20
2022-09-26T05:18:51.991Z,1003.19
2022-09-26T05:19:51.901Z,1003.19
2022-09-26T05:20:51.884Z,1003.17
2022-09-26T05:21:51.881Z,1003.18
2022-09-26T05:22:51.885Z,1003.20
2022-09-26T05:23:51.846Z,1003.19
2022-09-26T05:24:51.854Z,1003.15
2022-09-26T05:25:51.807Z,1003.19
2022-09-26T05:26:51.796Z,1003.16
2022-09-26T05:27:51.738Z,1003.15
2022-09-26T05:28:51.776Z,1003.15
2022-09-26T05:29:51.721Z,1003.10
2022-09-26T05:30:51.728Z,1003.12
2022-09-26T05:31:51.818Z,1003.08
2022-09-26T05:32:54.525Z,1003.05
2022-09-26T05:33:51.691Z,1003.06
2022-09-26T05:34:51.704Z,1003.10
2022-09-26T05:35:51.667Z,1003.08
2022-09-26T05:36:51.705Z,1003.04
2022-09-26T05:37:51.639Z,1003.03
2022-09-26T05:38:51.598Z,1003.07
2022-09-26T05:39:51.762Z,1003.06
2022-09-26T05:40:51.680Z,1003.05
2022-09-26T05:41:51.574Z,1003.01
2022-09-26T05:42:51.572Z,1003.00
2022-09-26T05:43:51.598Z,1002.98
2022-09-26T05:44:51.522Z,1002.99
2022-09-26T05:45:51.671Z,1002.98
2022-09-26T05:46:51.570Z,1002.97
2022-09-26T05:47:51.657Z,1002.99
2022-09-26T05:48:51.480Z,1002.98
2022-09-26T05:49:51.541Z,1002.93
2022-09-26T05:50:51.677Z,1002.90
2022-09-26T05:51:51.498Z,1002.86
2022-09-26T05:52:51.766Z,1002.89
2022-09-26T05:53:51.396Z,1002.87
2022-09-26T05:54:51.422Z,1002.86
2022-09-26T05:55:51.414Z,1002.83
2022-09-26T05:56:51.407Z,1002.87
2022-09-26T05:57:51.360Z,1002.81
2022-09-26T05:58:51.338Z,1002.88
2022-09-26T05:59:51.316Z,1002.90
2022-09-26T06:00:51.487Z,1002.84
2022-09-26T06:01:51.377Z,1002.90
2022-09-26T06:02:51.358Z,1002.89
2022-09-26T06:03:51.378Z,1002.89
2022-09-26T06:04:51.354Z,1002.84
2022-09-26T06:05:51.289Z,1002.80
2022-09-26T06:06:51.404Z,1002.84
2022-09-26T06:07:51.242Z,1002.81
2022-09-26T06:08:51.223Z,1002.75
2022-09-26T06:09:51.215Z,1002.72
2022-09-26T06:10:51.296Z,1002.70
2022-09-26T06:11:51.157Z,1002.71
2022-09-26T06:12:52.538Z,1002.71
2022-09-26T06:13:51.192Z,1002.71
2022-09-26T06:14:51.170Z,1002.60
2022-09-26T06:15:51.205Z,1002.60
2022-09-26T06:16:51.164Z,1002.57
2022-09-26T06:17:51.039Z,1002.57
2022-09-26T06:18:51.039Z,1002.48
2022-09-26T06:19:51.042Z,1002.52
2022-09-26T06:20:51.076Z,1002.51
2022-09-26T06:21:51.001Z,1002.48
2022-09-26T06:22:50.997Z,1002.43
2022-09-26T06:23:50.960Z,1002.47
2022-09-26T06:24:50.966Z,1002.46
2022-09-26T06:25:50.959Z,1002.47
2022-09-26T06:26:50.921Z,1002.45
2022-09-26T06:27:50.894Z,1002.43
2022-09-26T06:28:50.919Z,1002.38
2022-09-26T06:29:51.005Z,1002.38
2022-09-26T06:30:50.904Z,1002.34
2022-09-26T06:31:50.983Z,1002.32
2022-09-26T06:32:50.874Z,1002.35
2022-09-26T06:33:50.805Z,1002.32
2022-09-26T06:34:50.818Z,1002.36
2022-09-26T06:35:50.884Z,1002.30
2022-09-26T06:36:50.784Z,1002.22
2022-09-26T06:37:50.765Z,1002.19
2022-09-26T06:38:50.773Z,1002.20
2022-09-26T06:39:51.532Z,1002.19
2022-09-26T06:40:50.828Z,1002.16
2022-09-26T06:41:50.820Z,1002.11
2022-09-26T06:42:50.775Z,1002.13
2022-09-26T06:43:50.693Z,1002.12
2022-09-26T06:44:50.717Z,1002.08
2022-09-26T06:45:50.773Z,1002.03
2022-09-26T06:46:50.730Z,1002.07
2022-09-26T06:47:50.720Z,1002.03
2022-09-26T06:48:58.263Z,1002.01
2022-09-26T06:49:50.592Z,1001.97
2022-09-26T06:50:50.608Z,1001.97
2022-09-26T06:51:50.566Z,1001.96
2022-09-26T06:52:50.575Z,1001.96
2022-09-26T06:53:50.596Z,1001.94
2022-09-26T06:54:50.523Z,1001.97
2022-09-26T06:55:50.484Z,1001.95
2022-09-26T06:56:50.517Z,1001.91
2022-09-26T06:57:50.473Z,1002.00
2022-09-26T06:58:50.473Z,1001.92
2022-09-26T06:59:50.430Z,1001.95
2022-09-26T07:00:50.491Z,1001.97
2022-09-26T07:01:50.533Z,1001.89
2022-09-26T07:02:50.424Z,1001.91
2022-09-26T07:03:50.392Z,1001.92
2022-09-26T07:04:50.379Z,1001.89
2022-09-26T07:05:50.360Z,1001.87
2022-09-26T07:06:50.344Z,1001.85
2022-09-26T07:07:50.342Z,1001.85
2022-09-26T07:09:01.974Z,1001.84
2022-09-26T07:09:51.300Z,1001.80
2022-09-26T07:10:50.280Z,1001.79
2022-09-26T07:12:13.454Z,1001.76
2022-09-26T07:12:51.279Z,1001.76
2022-09-26T07:13:50.239Z,1001.74
2022-09-26T07:14:53.626Z,1001.78
2022-09-26T07:15:50.245Z,1001.72
2022-09-26T07:16:50.221Z,1001.72
2022-09-26T07:17:50.208Z,1001.67
2022-09-26T07:18:50.164Z,1001.71
2022-09-26T07:19:50.154Z,1001.66
2022-09-26T07:20:54.479Z,1001.72
2022-09-26T07:21:51.157Z,1001.66
2022-09-26T07:22:50.137Z,1001.71
2022-09-26T07:23:50.113Z,1001.64
2022-09-26T07:24:50.114Z,1001.61
2022-09-26T07:25:50.053Z,1001.56
2022-09-26T07:26:50.065Z,1001.59
2022-09-26T07:27:50.046Z,1001.55
2022-09-26T07:28:54.454Z,1001.53
2022-09-26T07:29:51.030Z,1001.57
2022-09-26T07:30:50.014Z,1001.56
2022-09-26T07:31:50.049Z,1001.53
2022-09-26T07:32:49.977Z,1001.49
2022-09-26T07:33:49.968Z,1001.51
2022-09-26T07:34:49.966Z,1001.43
2022-09-26T07:35:49.926Z,1001.47
2022-09-26T07:36:49.919Z,1001.44
2022-09-26T07:37:49.910Z,1001.39
2022-09-26T07:38:49.898Z,1001.38
2022-09-26T07:39:53.601Z,1001.37
2022-09-26T07:40:49.942Z,1001.37
2022-09-26T07:41:49.838Z,1001.36
2022-09-26T07:43:09.269Z,1001.37
2022-09-26T07:44:52.999Z,1001.42
2022-09-26T07:45:21.821Z,1001.40
2022-09-26T07:45:50.781Z,1001.43
2022-09-26T07:46:49.843Z,1001.39
2022-09-26T07:47:49.760Z,1001.41
2022-09-26T07:48:49.764Z,1001.43
2022-09-26T07:49:49.714Z,1001.44
2022-09-26T07:50:49.712Z,1001.41
2022-09-26T07:51:49.725Z,1001.38
2022-09-26T07:52:49.680Z,1001.39
2022-09-26T07:53:49.655Z,1001.42
2022-09-26T07:54:49.664Z,1001.42
2022-09-26T07:55:49.628Z,1001.43
2022-09-26T07:56:49.620Z,1001.43
2022-09-26T07:57:49.607Z,1001.38
2022-09-26T07:58:49.591Z,1001.42
2022-09-26T07:59:49.579Z,1001.36
2022-09-26T08:00:49.572Z,1001.40
2022-09-26T08:01:49.731Z,1001.36
2022-09-26T08:02:49.589Z,1001.39
2022-09-26T08:03:49.520Z,1001.32
2022-09-26T08:04:49.499Z,1001.35
2022-09-26T08:05:49.486Z,1001.35
2022-09-26T08:06:49.533Z,1001.34
2022-09-26T08:07:52.087Z,1001.34
2022-09-26T08:08:49.482Z,1001.33
2022-09-26T08:09:49.448Z,1001.32
2022-09-26T08:10:49.418Z,1001.30
2022-09-26T08:11:49.428Z,1001.23
2022-09-26T08:12:49.399Z,1001.23
2022-09-26T08:13:49.374Z,1001.29
2022-09-26T08:14:49.391Z,1001.24
2022-09-26T08:15:49.383Z,1001.23
2022-09-26T08:16:49.347Z,1001.21
2022-09-26T08:17:49.346Z,1001.18
2022-09-26T08:18:49.316Z,1001.15
2022-09-26T08:19:49.290Z,1001.19
2022-09-26T08:20:49.289Z,1001.17
2022-09-26T08:21:49.270Z,1001.20
2022-09-26T08:22:49.258Z,1001.13
2022-09-26T08:23:49.264Z,1001.19
2022-09-26T08:24:49.232Z,1001.13
2022-09-26T08:25:49.221Z,1001.20
2022-09-26T08:26:49.200Z,1001.13
2022-09-26T08:27:49.182Z,1001.16
2022-09-26T08:28:49.202Z,1001.09
2022-09-26T08:29:49.180Z,1001.05
2022-09-26T08:30:49.148Z,1001.10
2022-09-26T08:31:49.188Z,1001.15
2022-09-26T08:32:49.118Z,1001.12
2022-09-26T08:33:49.123Z,1001.11
2022-09-26T08:34:49.094Z,1001.13
2022-09-26T08:35:49.093Z,1001.10
2022-09-26T08:36:49.069Z,1001.11
2022-09-26T08:37:49.044Z,1001.02
2022-09-26T08:38:49.035Z,1001.01
2022-09-26T08:39:49.024Z,1000.99
2022-09-26T08:40:49.140Z,1001.02
2022-09-26T08:41:49.004Z,1000.96
2022-09-26T08:42:49.007Z,1000.98
2022-09-26T08:43:48.965Z,1001.01
2022-09-26T08:44:48.983Z,1000.97
2022-09-26T08:45:48.945Z,1000.93
2022-09-26T08:46:49.076Z,1000.97
2022-09-26T08:47:48.908Z,1000.91
2022-09-26T08:48:48.907Z,1000.93
2022-09-26T08:49:48.885Z,1000.91
2022-09-26T08:50:48.898Z,1000.85
2022-09-26T08:51:48.907Z,1000.84
2022-09-26T08:52:53.152Z,1000.88
2022-09-26T08:53:48.870Z,1000.87
2022-09-26T08:54:48.820Z,1000.82
2022-09-26T08:55:48.799Z,1000.93
2022-09-26T08:56:48.792Z,1000.91
2022-09-26T08:57:48.792Z,1000.93
2022-09-26T08:58:48.778Z,1000.91
2022-09-26T08:59:48.749Z,1000.94
2022-09-26T09:00:48.736Z,1000.87
2022-09-26T09:01:48.806Z,1000.90
2022-09-26T09:02:49.160Z,1000.87
2022-09-26T09:03:48.711Z,1000.89
2022-09-26T09:04:53.656Z,1000.90
2022-09-26T09:05:49.661Z,1000.88
2022-09-26T09:06:48.746Z,1000.91
2022-09-26T09:07:48.642Z,1000.92
2022-09-26T09:08:48.632Z,1000.94
2022-09-26T09:09:48.601Z,1000.88
2022-09-26T09:10:48.588Z,1000.84
2022-09-26T09:11:51.032Z,1000.86
2022-09-26T09:12:48.562Z,1000.83
2022-09-26T09:13:48.562Z,1000.82
2022-09-26T09:15:02.254Z,1000.82
2022-09-26T09:15:49.603Z,1000.81
2022-09-26T09:16:48.520Z,1000.81
2022-09-26T09:17:48.502Z,1000.79
2022-09-26T09:18:48.496Z,1000.78
2022-09-26T09:19:48.464Z,1000.67
2022-09-26T09:20:48.453Z,1000.81
2022-09-26T09:21:48.461Z,1000.77
2022-09-26T09:22:48.446Z,1000.78
2022-09-26T09:23:48.433Z,1000.80
2022-09-26T09:24:48.407Z,1000.75
2022-09-26T09:25:48.522Z,1000.69
2022-09-26T09:27:53.110Z,1000.66
2022-09-26T09:28:48.353Z,1000.63
2022-09-26T09:29:49.757Z,1000.65
2022-09-26T09:30:48.348Z,1000.57
2022-09-26T09:31:48.352Z,1000.59
2022-09-26T09:32:48.315Z,1000.58
2022-09-26T09:33:48.289Z,1000.54
2022-09-26T09:34:53.533Z,1000.55
2022-09-26T09:35:49.296Z,1000.47
2022-09-26T09:36:48.239Z,1000.46
2022-09-26T09:37:48.218Z,1000.45
2022-09-26T09:38:48.203Z,1000.44
2022-09-26T09:39:48.197Z,1000.40
2022-09-26T09:40:48.306Z,1000.40
2022-09-26T09:41:48.179Z,1000.37
2022-09-26T09:42:48.157Z,1000.36
2022-09-26T09:43:48.139Z,1000.36
2022-09-26T09:44:48.119Z,1000.32
2022-09-26T09:45:48.251Z,1000.31
2022-09-26T09:46:48.155Z,1000.32
2022-09-26T09:47:48.083Z,1000.26
2022-09-26T09:48:48.062Z,1000.20
2022-09-26T09:49:48.052Z,1000.20
2022-09-26T09:50:48.042Z,1000.22
2022-09-26T09:51:48.052Z,1000.19
2022-09-26T09:52:48.023Z,1000.17
2022-09-26T09:53:48.014Z,1000.12
2022-09-26T09:54:47.992Z,1000.11
2022-09-26T09:55:47.971Z,1000.14
2022-09-26T09:56:47.962Z,1000.12
2022-09-26T09:57:47.968Z,1000.09
2022-09-26T09:58:47.923Z,1000.04
2022-09-26T09:59:47.920Z,999.97
2022-09-26T10:00:51.247Z,999.98
2022-09-26T10:01:47.893Z,999.95
2022-09-26T10:02:48.004Z,999.97
2022-09-26T10:03:47.873Z,999.94
2022-09-26T10:04:47.881Z,999.88
2022-09-26T10:05:47.825Z,999.77
2022-09-26T10:06:47.814Z,999.79
2022-09-26T10:07:47.819Z,999.79
2022-09-26T10:08:47.805Z,999.77
2022-09-26T10:09:47.787Z,999.73
2022-09-26T10:10:47.766Z,999.69
2022-09-26T10:11:52.357Z,999.67
2022-09-26T10:12:47.747Z,999.71
2022-09-26T10:13:47.722Z,999.70
2022-09-26T10:14:47.699Z,999.67
2022-09-26T10:15:47.777Z,999.60
2022-09-26T10:16:47.684Z,999.54
2022-09-26T10:18:06.512Z,999.51
2022-09-26T10:18:48.696Z,999.50
2022-09-26T10:19:47.649Z,999.52
2022-09-26T10:20:47.701Z,999.49
2022-09-26T10:21:47.791Z,999.53
2022-09-26T10:22:47.590Z,999.51
2022-09-26T10:23:47.569Z,999.50
2022-09-26T10:24:47.559Z,999.53
2022-09-26T10:25:47.552Z,999.53
2022-09-26T10:26:47.520Z,999.53
2022-09-26T10:27:47.499Z,999.49
2022-09-26T10:28:47.486Z,999.47
2022-09-26T10:29:47.490Z,999.45
2022-09-26T10:30:47.516Z,999.51
2022-09-26T10:31:47.490Z,999.54
2022-09-26T10:32:47.432Z,999.50
2022-09-26T10:33:47.436Z,999.49
2022-09-26T10:34:47.403Z,999.43
2022-09-26T10:35:47.420Z,999.45
2022-09-26T10:36:47.373Z,999.39
2022-09-26T10:37:47.371Z,999.41
2022-09-26T10:38:47.365Z,999.36
2022-09-26T10:39:47.337Z,999.41
2022-09-26T10:40:47.369Z,999.34
2022-09-26T10:41:47.333Z,999.34
2022-09-26T10:42:47.318Z,999.29
2022-09-26T10:43:47.301Z,999.27
2022-09-26T10:44:47.258Z,999.24
2022-09-26T10:45:47.256Z,999.22
2022-09-26T10:46:47.319Z,999.22
2022-09-26T10:47:47.225Z,999.16
2022-09-26T10:48:47.219Z,999.19
2022-09-26T10:49:47.196Z,999.10
2022-09-26T10:50:47.186Z,999.09
2022-09-26T10:51:47.175Z,999.03
2022-09-26T10:52:47.172Z,999.05
2022-09-26T10:53:47.134Z,999.04
2022-09-26T10:54:47.123Z,999.01
2022-09-26T10:55:47.117Z,998.92
2022-09-26T10:56:47.089Z,998.98
2022-09-26T10:57:47.082Z,998.98
2022-09-26T10:58:47.075Z,998.92
2022-09-26T10:59:47.043Z,998.92
2022-09-26T11:00:47.033Z,998.92
2022-09-26T11:01:47.110Z,998.87
2022-09-26T11:02:47.014Z,998.83
2022-09-26T11:03:47.086Z,998.85
2022-09-26T11:04:47.041Z,998.83
2022-09-26T11:05:47.010Z,998.86
2022-09-26T11:06:46.965Z,998.84
2022-09-26T11:07:46.953Z,998.78
2022-09-26T11:08:46.961Z,998.83
2022-09-26T11:09:46.912Z,998.77
2022-09-26T11:10:46.901Z,998.72
2022-09-26T11:11:46.891Z,998.75
2022-09-26T11:12:46.915Z,998.76
2022-09-26T11:13:46.867Z,998.73
2022-09-26T11:14:46.883Z,998.73
2022-09-26T11:15:46.897Z,998.73
2022-09-26T11:16:47.146Z,998.71
2022-09-26T11:17:46.873Z,998.69
2022-09-26T11:18:46.793Z,998.64
2022-09-26T11:19:48.975Z,998.68
2022-09-26T11:20:47.802Z,998.65
2022-09-26T11:21:46.754Z,998.65
2022-09-26T11:22:46.744Z,998.57
2022-09-26T11:23:46.746Z,998.60
2022-09-26T11:24:46.706Z,998.62
2022-09-26T11:25:46.926Z,998.57
2022-09-26T11:26:46.685Z,998.50
2022-09-26T11:27:46.676Z,998.52
2022-09-26T11:28:46.648Z,998.53
2022-09-26T11:29:46.670Z,998.51
2022-09-26T11:30:46.653Z,998.51
2022-09-26T11:31:46.635Z,998.51
2022-09-26T11:32:46.599Z,998.40
2022-09-26T11:33:46.610Z,998.44
2022-09-26T11:34:46.593Z,998.33
2022-09-26T11:35:46.576Z,998.33
2022-09-26T11:36:46.541Z,998.25
2022-09-26T11:37:46.559Z,998.31
2022-09-26T11:38:46.532Z,998.25
2022-09-26T11:39:46.540Z,998.23
2022-09-26T11:40:46.583Z,998.22
2022-09-26T11:41:46.505Z,998.23
2022-09-26T11:42:46.461Z,998.14
2022-09-26T11:43:46.501Z,998.12
2022-09-26T11:44:46.495Z,998.18
2022-09-26T11:45:47.601Z,998.10
2022-09-26T11:46:46.557Z,998.13
2022-09-26T11:47:46.404Z,998.07
2022-09-26T11:48:46.414Z,998.09
2022-09-26T11:49:46.391Z,998.05
2022-09-26T11:50:46.391Z,998.10
2022-09-26T11:51:46.341Z,998.12
2022-09-26T11:52:53.578Z,998.05
2022-09-26T11:53:46.364Z,998.11
2022-09-26T11:54:46.317Z,998.06
2022-09-26T11:55:46.303Z,998.14
2022-09-26T11:56:46.277Z,998.07
2022-09-26T11:57:46.266Z,998.07
2022-09-26T11:58:46.298Z,998.04
2022-09-26T11:59:46.254Z,998.04
2022-09-26T12:00:46.247Z,997.99
2022-09-26T12:01:46.219Z,998.04
2022-09-26T12:02:46.289Z,998.01
2022-09-26T12:03:46.265Z,998.06
2022-09-26T12:04:46.172Z,998.02
2022-09-26T12:05:46.159Z,998.01
2022-09-26T12:06:46.159Z,997.96
2022-09-26T12:07:46.136Z,997.98
2022-09-26T12:08:46.162Z,998.01
2022-09-26T12:09:46.107Z,998.00
2022-09-26T12:10:46.091Z,998.00
2022-09-26T12:11:46.104Z,997.94
2022-09-26T12:12:46.086Z,997.98
2022-09-26T12:13:46.084Z,997.97
2022-09-26T12:14:46.031Z,997.98
2022-09-26T12:15:46.091Z,997.95
2022-09-26T12:16:46.010Z,997.94
2022-09-26T12:17:46.021Z,997.93
2022-09-26T12:18:46.071Z,997.95
2022-09-26T12:19:45.993Z,997.97
2022-09-26T12:20:45.956Z,997.95
2022-09-26T12:21:45.944Z,997.94
2022-09-26T12:22:45.945Z,997.92
2022-09-26T12:23:45.998Z,997.89
2022-09-26T12:24:45.898Z,997.83
2022-09-26T12:25:45.933Z,997.86
2022-09-26T12:26:45.873Z,997.83
2022-09-26T12:27:45.865Z,997.83